createdAt,value
2018-02-13T00:00:46.374Z,10.45
2018-02-13T00:03:13.916Z,11.18
2018-02-13T00:05:41.491Z,7.50
2018-02-13T00:08:09.030Z,5.78
2018-02-13T00:10:36.597Z,8.60
2018-02-13T00:13:04.132Z,7.87
2018-02-13T00:15:31.704Z,8.68
2018-02-13T00:17:59.252Z,8.02
2018-02-13T00:20:26.830Z,7.12
2018-02-13T00:22:54.366Z,6.97
2018-02-13T00:25:21.940Z,6.32
2018-02-13T00:27:49.485Z,8.90
2018-02-13T00:30:17.059Z,6.10
2018-02-13T00:32:44.584Z,4.40
2018-02-13T00:35:12.920Z,5.28
2018-02-13T00:37:40.509Z,10.05
2018-02-13T00:40:08.049Z,6.60
2018-02-13T00:42:35.626Z,10.77
2018-02-13T00:45:03.936Z,5.53
2018-02-13T00:47:31.511Z,5.93
2018-02-13T00:49:59.042Z,7.53
2018-02-13T00:52:27.377Z,8.13
2018-02-13T00:54:54.907Z,8.93
2018-02-13T00:57:22.475Z,8.40
2018-02-13T00:59:50.005Z,9.07
2018-02-13T01:02:17.576Z,5.65
2018-02-13T01:04:45.107Z,7.97
2018-02-13T01:07:13.441Z,5.75
2018-02-13T01:09:40.968Z,6.22
2018-02-13T01:12:08.541Z,6.50
2018-02-13T01:14:36.067Z,7.72
2018-02-13T01:17:04.412Z,8.80
2018-02-13T01:19:31.955Z,5.50
2018-02-13T01:21:59.524Z,6.35
2018-02-13T01:24:27.271Z,12.68
2018-02-13T01:26:54.858Z,10.20
2018-02-13T01:29:22.391Z,8.55
2018-02-13T01:31:49.977Z,5.57
2018-02-13T01:34:17.511Z,8.50
2018-02-13T01:36:45.097Z,6.80
2018-02-13T01:39:12.723Z,7.00
2018-02-13T01:41:40.296Z,5.82
2018-02-13T01:44:07.824Z,10.75
2018-02-13T01:46:35.391Z,6.00
2018-02-13T01:49:03.083Z,6.78
2018-02-13T01:51:30.624Z,6.80
2018-02-13T01:53:58.195Z,9.27
2018-02-13T01:56:25.724Z,6.75
2018-02-13T01:58:53.317Z,5.07
2018-02-13T02:01:20.856Z,9.27
2018-02-13T02:03:48.427Z,7.18
2018-02-13T02:06:16.033Z,7.07
2018-02-13T02:08:44.377Z,6.78
2018-02-13T02:11:11.924Z,6.50
2018-02-13T02:13:39.508Z,18.10
2018-02-13T02:16:07.043Z,14.48
2018-02-13T02:18:34.613Z,6.32
2018-02-13T02:21:02.156Z,7.85
2018-02-13T02:23:29.718Z,6.35
2018-02-13T02:25:57.256Z,7.00
2018-02-13T02:28:24.840Z,8.27
2018-02-13T02:30:52.369Z,9.70
2018-02-13T02:33:20.720Z,9.18
2018-02-13T02:35:48.262Z,12.40
2018-02-13T02:38:15.859Z,10.95
2018-02-13T02:40:44.161Z,10.93
2018-02-13T02:43:11.740Z,9.23
2018-02-13T02:45:39.291Z,11.73
2018-02-13T02:48:06.864Z,9.18
2018-02-13T02:50:34.404Z,9.40
2018-02-13T02:53:01.986Z,9.35
2018-02-13T02:55:29.558Z,11.35
2018-02-13T02:57:57.096Z,12.75
2018-02-13T03:00:24.673Z,11.85
2018-02-13T03:02:52.208Z,9.40
2018-02-13T03:05:19.790Z,12.25
2018-02-13T03:07:47.328Z,8.70
2018-02-13T03:10:14.912Z,13.07
2018-02-13T03:12:42.446Z,11.50
2018-02-13T03:15:10.017Z,8.80
2018-02-13T03:17:37.547Z,13.95
2018-02-13T03:20:05.132Z,12.50
2018-02-13T03:22:32.668Z,10.32
2018-02-13T03:25:00.244Z,9.85
2018-02-13T03:27:27.778Z,14.35
2018-02-13T03:29:56.123Z,12.63
2018-02-13T03:32:23.650Z,9.65
2018-02-13T03:34:51.219Z,11.35
2018-02-13T03:37:18.758Z,10.88
2018-02-13T03:39:46.338Z,11.82
2018-02-13T03:42:13.866Z,12.32
2018-02-13T03:44:41.435Z,10.73
2018-02-13T03:47:08.969Z,9.80
2018-02-13T03:49:37.308Z,10.05
2018-02-13T03:52:04.836Z,10.70
2018-02-13T03:54:32.498Z,10.82
2018-02-13T03:57:00.035Z,12.65
2018-02-13T03:59:27.604Z,15.95
2018-02-13T04:01:55.140Z,12.02
2018-02-13T04:04:23.483Z,11.05
2018-02-13T04:06:51.063Z,10.55
2018-02-13T04:09:18.592Z,13.00
2018-02-13T04:11:46.234Z,9.20
2018-02-13T04:14:13.760Z,13.98
2018-02-13T04:16:42.106Z,13.23
2018-02-13T04:19:09.648Z,11.20
2018-02-13T04:21:37.222Z,10.68
2018-02-13T04:24:04.748Z,9.88
2018-02-13T04:26:32.326Z,15.38
2018-02-13T04:28:59.869Z,10.30
2018-02-13T04:31:27.445Z,11.95
2018-02-13T04:33:54.986Z,16.08
2018-02-13T04:36:22.560Z,12.50
2018-02-13T04:38:50.097Z,14.00
2018-02-13T04:41:18.552Z,13.18
2018-02-13T04:43:46.847Z,11.35
2018-02-13T04:46:14.420Z,11.60
2018-02-13T04:48:41.954Z,9.68
2018-02-13T04:51:10.295Z,10.25
2018-02-13T04:53:37.832Z,10.57
2018-02-13T04:56:05.410Z,16.20
2018-02-13T04:58:32.952Z,11.80
2018-02-13T05:01:00.536Z,12.37
2018-02-13T05:03:28.104Z,12.75
2018-02-13T05:05:55.681Z,9.27
2018-02-13T05:08:23.990Z,13.43
2018-02-13T05:10:51.573Z,15.82
2018-02-13T05:13:19.195Z,11.35
2018-02-13T05:15:46.767Z,11.77
2018-02-13T05:18:14.344Z,14.77
2018-02-13T05:20:41.940Z,11.10
2018-02-13T05:23:09.514Z,8.40
2018-02-13T05:25:37.829Z,15.00
2018-02-13T05:28:07.188Z,11.10
2018-02-13T05:30:34.953Z,15.27
2018-02-13T05:33:03.324Z,12.90
2018-02-13T05:35:30.867Z,14.93
2018-02-13T05:37:59.308Z,11.80
2018-02-13T05:43:45.353Z,9.52
2018-02-13T05:46:15.089Z,9.45
2018-02-13T05:48:44.520Z,13.27
2018-02-13T05:51:12.082Z,11.90
2018-02-13T05:53:39.654Z,13.60
2018-02-13T05:56:07.226Z,11.40
2018-02-13T05:58:34.810Z,11.80
2018-02-13T06:01:02.370Z,12.57
2018-02-13T06:03:29.951Z,12.40
2018-02-13T06:05:57.487Z,11.75
2018-02-13T06:08:25.064Z,13.98
2018-02-13T06:10:52.606Z,12.73
2018-02-13T06:13:20.183Z,12.70
2018-02-13T06:15:47.715Z,11.40
2018-02-13T06:18:15.366Z,12.13
2018-02-13T06:20:42.913Z,12.90
2018-02-13T06:23:10.503Z,13.00
2018-02-13T06:25:38.064Z,12.25
2018-02-13T06:28:05.640Z,15.45
2018-02-13T06:30:33.968Z,12.43
2018-02-13T06:33:02.105Z,12.98
2018-02-13T06:35:29.637Z,10.63
2018-02-13T06:37:57.212Z,15.00
2018-02-13T06:40:24.753Z,12.68
2018-02-13T06:42:52.334Z,11.80
2018-02-13T06:45:19.872Z,12.65
2018-02-13T06:47:47.481Z,15.32
2018-02-13T06:50:15.805Z,9.63
2018-02-13T06:52:43.378Z,13.02
2018-02-13T06:55:10.923Z,10.77
2018-02-13T06:57:38.508Z,11.98
2018-02-13T07:00:06.089Z,12.60
2018-02-13T07:02:34.392Z,12.95
2018-02-13T07:05:01.968Z,11.77
2018-02-13T07:07:29.508Z,13.32
2018-02-13T07:09:57.088Z,10.48
2018-02-13T07:12:24.619Z,14.95
2018-02-13T07:14:52.963Z,15.70
2018-02-13T07:17:20.585Z,14.93
2018-02-13T07:19:48.263Z,17.00
2018-02-13T07:22:15.860Z,19.58
2018-02-13T07:24:43.438Z,16.20
2018-02-13T07:27:11.760Z,16.77
2018-02-13T07:29:39.334Z,16.58
2018-02-13T07:32:06.860Z,16.33
2018-02-13T07:37:28.882Z,12.43
2018-02-13T07:39:57.591Z,12.20
2018-02-13T07:42:25.126Z,12.35
2018-02-13T07:44:53.483Z,12.43
2018-02-13T07:47:21.792Z,15.05
2018-02-13T07:49:50.132Z,13.65
2018-02-13T07:52:17.662Z,14.57
2018-02-13T07:54:45.238Z,14.52
2018-02-13T07:57:12.781Z,17.00
2018-02-13T07:59:40.359Z,12.25
2018-02-13T08:02:07.928Z,18.15
2018-02-13T08:04:35.459Z,14.43
2018-02-13T08:07:03.044Z,12.23
2018-02-13T08:09:30.578Z,15.88
2018-02-13T08:11:58.154Z,18.37
2018-02-13T08:14:25.727Z,15.80
2018-02-13T08:16:53.275Z,12.52
2018-02-13T08:19:20.859Z,25.05
2018-02-13T08:21:48.390Z,18.27
2018-02-13T08:24:15.958Z,13.52
2018-02-13T08:26:43.493Z,13.80
2018-02-13T08:29:11.074Z,17.55
2018-02-13T08:31:38.606Z,17.92
2018-02-13T08:34:06.185Z,19.37
2018-02-13T08:36:33.720Z,16.02
2018-02-13T08:39:01.305Z,13.45
2018-02-13T08:41:28.835Z,19.60
2018-02-13T08:43:56.408Z,13.02
2018-02-13T08:46:23.952Z,25.50
2018-02-13T08:48:51.533Z,13.90
2018-02-13T08:51:19.082Z,12.25
2018-02-13T08:53:46.675Z,11.02
2018-02-13T08:56:14.200Z,19.52
2018-02-13T08:58:41.777Z,16.50
2018-02-13T09:01:09.345Z,15.18
2018-02-13T09:03:36.908Z,17.15
2018-02-13T09:06:04.448Z,13.62
2018-02-13T09:08:32.031Z,13.48
2018-02-13T09:10:59.564Z,17.75
2018-02-13T09:13:27.139Z,15.38
2018-02-13T09:15:54.674Z,16.77
2018-02-13T09:18:22.243Z,11.18
2018-02-13T09:20:49.825Z,12.10
2018-02-13T09:23:17.561Z,7.37
2018-02-13T09:25:44.938Z,14.18
2018-02-13T09:28:12.466Z,9.98
2018-02-13T09:30:40.054Z,12.45
2018-02-13T09:33:07.587Z,17.90
2018-02-13T09:35:35.175Z,15.98
2018-02-13T09:38:02.700Z,16.70
2018-02-13T09:40:30.279Z,16.23
2018-02-13T09:42:57.914Z,15.50
2018-02-13T09:45:25.503Z,14.00
2018-02-13T09:47:53.074Z,15.05
2018-02-13T09:50:20.641Z,12.77
2018-02-13T09:52:48.176Z,15.13
2018-02-13T09:55:15.760Z,12.95
2018-02-13T09:57:43.286Z,10.70
2018-02-13T10:00:11.070Z,10.18
2018-02-13T10:02:38.602Z,12.23
2018-02-13T10:05:06.148Z,12.32
2018-02-13T10:07:34.487Z,12.10
2018-02-13T10:10:02.029Z,15.55
2018-02-13T10:12:29.603Z,14.45
2018-02-13T10:14:57.136Z,13.00
2018-02-13T10:17:24.711Z,15.88
2018-02-13T10:19:52.248Z,13.50
2018-02-13T10:22:19.828Z,20.00
2018-02-13T10:24:47.367Z,17.02
2018-02-13T10:27:14.942Z,15.18
2018-02-13T10:29:42.481Z,11.68
2018-02-13T10:32:10.064Z,16.30
2018-02-13T10:34:37.586Z,13.25
2018-02-13T10:37:05.166Z,14.60
2018-02-13T10:39:32.704Z,14.98
2018-02-13T10:42:01.059Z,17.75
2018-02-13T10:44:28.594Z,18.52
2018-02-13T10:46:56.174Z,14.73
2018-02-13T10:49:23.705Z,15.93
2018-02-13T10:51:51.291Z,15.30
2018-02-13T10:54:18.827Z,12.35
2018-02-13T10:56:46.407Z,14.38
2018-02-13T10:59:13.944Z,12.45
2018-02-13T11:01:41.522Z,15.60
2018-02-13T11:04:09.057Z,14.75
2018-02-13T11:06:36.637Z,19.27
2018-02-13T11:09:04.180Z,10.75
2018-02-13T11:11:31.767Z,11.85
2018-02-13T11:13:59.322Z,14.20
2018-02-13T11:16:26.924Z,10.85
2018-02-13T11:18:54.508Z,10.32
2018-02-13T11:21:22.108Z,34.47
2018-02-13T11:23:49.657Z,9.15
2018-02-13T11:26:17.276Z,8.38
2018-02-13T11:28:44.795Z,9.27
2018-02-13T11:31:12.391Z,6.20
2018-02-13T11:33:39.922Z,5.20
2018-02-13T11:36:08.251Z,6.57
2018-02-13T11:38:35.787Z,4.72
2018-02-13T11:41:03.364Z,3.95
2018-02-13T11:43:30.913Z,11.77
2018-02-13T11:45:58.486Z,7.30
2018-02-13T11:48:26.038Z,6.03
2018-02-13T11:50:53.611Z,5.78
2018-02-13T11:53:21.142Z,7.43
2018-02-13T11:55:48.721Z,8.35
2018-02-13T11:58:16.243Z,9.60
2018-02-13T12:00:44.597Z,8.40
2018-02-13T12:03:12.124Z,8.32
2018-02-13T12:05:39.706Z,7.55
2018-02-13T12:08:08.021Z,5.12
2018-02-13T12:10:36.367Z,6.50
2018-02-13T12:13:03.900Z,5.65
2018-02-13T12:15:31.480Z,4.07
2018-02-13T12:18:00.515Z,7.10
2018-02-13T12:20:28.854Z,15.38
2018-02-13T12:22:56.379Z,4.45
2018-02-13T12:25:35.646Z,6.37
2018-02-13T12:28:03.169Z,3.65
2018-02-13T12:30:30.737Z,6.50
2018-02-13T12:32:58.291Z,5.40
2018-02-13T12:35:25.863Z,3.00
2018-02-13T12:37:53.391Z,5.65
2018-02-13T12:40:20.966Z,5.47
2018-02-13T12:42:48.502Z,8.18
2018-02-13T12:45:16.838Z,6.72
2018-02-13T12:47:44.379Z,6.75
2018-02-13T12:50:11.955Z,6.25
2018-02-13T12:52:39.494Z,6.15
2018-02-13T12:55:07.068Z,4.35
2018-02-13T12:57:34.606Z,6.90
2018-02-13T13:00:02.196Z,10.98
2018-02-13T13:02:29.742Z,12.95
2018-02-13T13:04:57.313Z,7.25
2018-02-13T13:07:24.942Z,59.88
2018-02-13T13:09:52.480Z,7.75
2018-02-13T13:12:20.057Z,10.18
2018-02-13T13:14:47.595Z,7.30
2018-02-13T13:17:15.940Z,6.32
2018-02-13T13:19:43.484Z,4.10
2018-02-13T13:22:11.060Z,14.13
2018-02-13T13:24:38.596Z,7.68
2018-02-13T13:27:06.177Z,6.93
2018-02-13T13:29:33.724Z,10.80
2018-02-13T13:32:01.310Z,10.30
2018-02-13T13:34:29.644Z,17.52
2018-02-13T13:36:57.218Z,7.10
2018-02-13T13:39:24.753Z,5.43
2018-02-13T13:41:52.337Z,13.27
2018-02-13T13:44:19.863Z,8.55
2018-02-13T13:46:47.435Z,10.30
2018-02-13T13:49:14.980Z,7.55
2018-02-13T13:51:42.551Z,6.00
2018-02-13T13:54:10.080Z,6.60
2018-02-13T13:56:38.423Z,5.28
2018-02-13T13:59:05.951Z,8.50
2018-02-13T14:01:33.527Z,5.78
2018-02-13T14:04:01.053Z,4.82
2018-02-13T14:06:28.640Z,10.10
2018-02-13T14:08:56.247Z,5.53
2018-02-13T14:11:24.596Z,9.68
2018-02-13T14:13:52.123Z,5.53
2018-02-13T14:16:19.702Z,7.32
2018-02-13T14:18:47.250Z,7.30
2018-02-13T14:21:14.861Z,7.30
2018-02-13T14:23:43.164Z,5.18
2018-02-13T14:26:10.744Z,6.45
2018-02-13T14:28:38.306Z,6.28
2018-02-13T14:31:05.906Z,3.15
2018-02-13T14:33:34.228Z,12.05
2018-02-13T14:36:01.809Z,6.37
2018-02-13T14:38:30.164Z,7.35
2018-02-13T14:40:57.706Z,7.00
2018-02-13T14:43:25.527Z,5.18
2018-02-13T14:45:53.098Z,3.50
2018-02-13T14:48:20.659Z,6.75
2018-02-13T14:50:48.240Z,4.10
2018-02-13T14:53:16.538Z,4.18
2018-02-13T14:55:44.124Z,5.25
2018-02-13T14:58:11.700Z,3.17
2018-02-13T15:00:39.288Z,7.07
2018-02-13T15:03:06.903Z,3.90
2018-02-13T15:05:34.440Z,8.95
2018-02-13T15:08:02.255Z,7.22
2018-02-13T15:10:29.804Z,3.95
2018-02-13T15:12:57.396Z,3.10
2018-02-13T15:15:30.091Z,2.65
2018-02-13T15:18:01.436Z,4.20
2018-02-13T15:20:29.739Z,4.43
2018-02-13T15:22:57.304Z,5.85
2018-02-13T15:25:24.836Z,6.72
2018-02-13T15:27:53.174Z,7.45
2018-02-13T15:30:20.751Z,19.00
2018-02-13T15:32:48.337Z,6.25
2018-02-13T15:35:16.631Z,6.12
2018-02-13T15:37:44.165Z,6.43
2018-02-13T15:40:12.495Z,4.05
2018-02-13T15:42:40.048Z,9.30
2018-02-13T15:45:07.622Z,8.27
2018-02-13T15:47:35.735Z,8.82
2018-02-13T15:50:04.303Z,8.65
2018-02-13T15:52:32.766Z,12.27
2018-02-13T15:55:00.312Z,11.30
2018-02-13T15:57:27.903Z,6.25
2018-02-13T15:59:56.251Z,8.00
2018-02-13T16:02:23.776Z,8.10
2018-02-13T16:04:52.126Z,6.80
2018-02-13T16:07:20.428Z,5.97
2018-02-13T16:09:48.116Z,12.02
2018-02-13T16:12:15.661Z,5.75
2018-02-13T16:14:43.232Z,6.43
2018-02-13T16:17:10.763Z,6.07
2018-02-13T16:19:39.105Z,10.10
2018-02-13T16:22:06.639Z,11.43
2018-02-13T16:24:34.231Z,8.32
2018-02-13T16:27:01.780Z,9.80
2018-02-13T16:29:29.365Z,14.98
2018-02-13T16:31:56.886Z,7.30
2018-02-13T16:34:24.467Z,9.18
2018-02-13T16:36:52.008Z,12.27
2018-02-13T16:39:19.629Z,9.73
2018-02-13T16:41:47.162Z,9.00
2018-02-13T16:44:15.505Z,12.68
2018-02-13T16:46:43.045Z,8.02
2018-02-13T16:49:10.627Z,11.32
2018-02-13T16:51:38.168Z,10.27
2018-02-13T16:54:05.755Z,14.68
2018-02-13T16:56:33.289Z,14.55
2018-02-13T16:59:00.875Z,13.52
2018-02-13T17:01:28.405Z,9.43
2018-02-13T17:03:55.999Z,12.15
2018-02-13T17:06:23.577Z,9.07
2018-02-13T17:08:51.184Z,12.35
2018-02-13T17:11:18.771Z,13.25
2018-02-13T17:13:46.306Z,12.57
2018-02-13T17:16:13.894Z,12.75
2018-02-13T17:18:41.426Z,12.37
2018-02-13T17:21:09.212Z,14.65
2018-02-13T17:23:36.749Z,17.23
2018-02-13T17:26:04.334Z,24.25
2018-02-13T17:28:31.875Z,12.02
2018-02-13T17:30:59.467Z,12.68
2018-02-13T17:33:27.001Z,14.40
2018-02-13T17:35:54.579Z,19.17
2018-02-13T17:38:22.109Z,12.37
2018-02-13T17:40:49.692Z,13.32
2018-02-13T17:43:17.227Z,12.23
2018-02-13T17:45:44.807Z,12.13
2018-02-13T17:48:12.352Z,13.80
2018-02-13T17:50:39.932Z,15.05
2018-02-13T17:53:07.509Z,12.48
2018-02-13T17:55:35.042Z,11.43
2018-02-13T17:58:02.621Z,12.85
2018-02-13T18:00:30.155Z,11.45
2018-02-13T18:02:57.747Z,19.05
2018-02-13T18:05:25.283Z,18.95
2018-02-13T18:07:52.863Z,12.05
2018-02-13T18:10:20.399Z,13.43
2018-02-13T18:12:47.977Z,16.27
2018-02-13T18:15:15.507Z,14.40
2018-02-13T18:17:43.089Z,17.55
2018-02-13T18:20:10.626Z,11.52
2018-02-13T18:22:38.221Z,14.57
2018-02-13T18:25:05.759Z,11.98
2018-02-13T18:27:33.346Z,16.73
2018-02-13T18:30:00.879Z,12.77
2018-02-13T18:32:28.456Z,21.05
2018-02-13T18:34:55.999Z,21.80
2018-02-13T18:37:23.578Z,17.52
2018-02-13T18:39:51.120Z,19.23
2018-02-13T18:42:18.703Z,14.40
2018-02-13T18:44:47.746Z,15.45
2018-02-13T18:47:15.332Z,21.20
2018-02-13T18:49:42.871Z,14.07
2018-02-13T18:54:37.979Z,23.85
2018-02-13T18:57:05.570Z,26.48
2018-02-13T18:59:33.107Z,35.88
2018-02-13T19:02:00.690Z,19.83
2018-02-13T19:04:28.226Z,30.05
2018-02-13T19:06:55.807Z,26.23
2018-02-13T19:09:23.342Z,29.80
2018-02-13T19:11:50.928Z,35.42
2018-02-13T19:14:18.461Z,26.95
2018-02-13T19:19:13.571Z,31.02
2018-02-13T19:21:41.182Z,30.52
2018-02-13T19:24:08.723Z,29.12
2018-02-13T19:26:36.300Z,25.33
2018-02-13T19:29:03.846Z,26.90
2018-02-13T19:31:31.435Z,23.15
2018-02-13T19:33:58.976Z,18.85
2018-02-13T19:36:26.572Z,18.73
2018-02-13T19:38:54.869Z,24.52
2018-02-13T19:41:22.468Z,22.10
2018-02-13T19:43:50.000Z,19.77
2018-02-13T19:46:17.580Z,19.52
2018-02-13T19:48:45.150Z,22.52
2018-02-13T19:51:12.732Z,20.70
2018-02-13T19:53:40.268Z,19.15
2018-02-13T19:56:07.850Z,21.98
2018-02-13T19:58:35.387Z,16.70
2018-02-13T20:01:02.970Z,19.15
2018-02-13T20:03:30.506Z,20.17
2018-02-13T20:05:58.092Z,16.50
2018-02-13T20:08:25.629Z,18.25
2018-02-13T20:10:53.207Z,18.58
2018-02-13T20:13:20.749Z,19.10
2018-02-13T20:15:48.331Z,17.30
2018-02-13T20:18:16.642Z,19.15
2018-02-13T20:20:44.261Z,18.52
2018-02-13T20:23:11.800Z,15.25
2018-02-13T20:25:39.375Z,14.57
2018-02-13T20:28:06.919Z,19.60
2018-02-13T20:30:34.490Z,16.10
2018-02-13T20:33:02.035Z,19.70
2018-02-13T20:35:29.621Z,16.67
2018-02-13T20:37:57.160Z,18.15
2018-02-13T20:40:24.745Z,15.73
2018-02-13T20:42:52.283Z,18.40
2018-02-13T20:45:19.861Z,15.07
2018-02-13T20:47:48.180Z,18.10
2018-02-13T20:50:15.768Z,17.48
2018-02-13T20:52:43.313Z,16.70
2018-02-13T20:55:10.908Z,20.62
2018-02-13T20:57:38.451Z,27.73
2018-02-13T21:00:06.210Z,28.08
2018-02-13T21:02:33.761Z,25.05
2018-02-13T21:05:01.362Z,26.15
2018-02-13T21:07:28.909Z,24.48
2018-02-13T21:09:56.483Z,23.30
2018-02-13T21:12:24.034Z,23.77
2018-02-13T21:14:52.610Z,21.08
2018-02-13T21:17:20.208Z,18.05
2018-02-13T21:19:47.775Z,19.87
2018-02-13T21:22:15.360Z,19.00
2018-02-13T21:24:42.949Z,19.15
2018-02-13T21:27:11.299Z,21.23
2018-02-13T21:29:38.838Z,20.02
2018-02-13T21:32:06.434Z,22.02
2018-02-13T21:34:33.978Z,24.95
2018-02-13T21:37:01.573Z,18.58
2018-02-13T21:39:29.113Z,17.05
2018-02-13T21:41:56.692Z,17.33
2018-02-13T21:44:24.999Z,20.58
2018-02-13T21:46:52.594Z,23.12
2018-02-13T21:49:20.136Z,20.12
2018-02-13T21:51:47.733Z,24.17
2018-02-13T21:54:15.288Z,22.27
2018-02-13T21:56:42.872Z,23.00
2018-02-13T21:59:10.407Z,25.80
2018-02-13T22:01:37.990Z,21.60
2018-02-13T22:04:05.523Z,22.42
2018-02-13T22:06:33.170Z,24.45
2018-02-13T22:09:00.715Z,25.77
2018-02-13T22:11:28.289Z,20.80
2018-02-13T22:13:55.828Z,24.67
2018-02-13T22:16:23.416Z,30.60
2018-02-13T22:18:50.959Z,26.77
2018-02-13T22:21:18.540Z,36.67
2018-02-13T22:23:46.068Z,45.17
2018-02-13T22:26:13.654Z,41.53
2018-02-13T22:28:41.183Z,38.55
2018-02-13T22:31:08.764Z,23.75
2018-02-13T22:33:36.342Z,26.62
2018-02-13T22:36:03.881Z,24.73
2018-02-13T22:38:31.468Z,22.25
2018-02-13T22:40:59.014Z,18.95
2018-02-13T22:43:26.591Z,21.55
2018-02-13T22:45:54.133Z,22.58
2018-02-13T22:48:21.707Z,22.20
2018-02-13T22:50:49.253Z,23.33
2018-02-13T22:53:16.831Z,22.60
2018-02-13T22:55:44.373Z,24.85
2018-02-13T22:58:11.955Z,19.10
2018-02-13T23:00:39.489Z,19.55
2018-02-13T23:03:07.079Z,17.67
2018-02-13T23:05:35.380Z,23.33
2018-02-13T23:08:03.728Z,26.65
2018-02-13T23:10:31.262Z,28.60
2018-02-13T23:12:58.836Z,23.25
2018-02-13T23:15:26.372Z,21.02
2018-02-13T23:17:53.955Z,21.42
2018-02-13T23:20:21.499Z,24.25
2018-02-13T23:22:49.087Z,22.33
2018-02-13T23:25:16.619Z,18.02
2018-02-13T23:27:44.209Z,24.20
2018-02-13T23:30:11.783Z,27.02
2018-02-13T23:32:39.315Z,21.73
2018-02-13T23:35:06.891Z,22.85
2018-02-13T23:37:34.431Z,30.40
2018-02-13T23:40:02.012Z,24.52
2018-02-13T23:42:29.560Z,20.70
2018-02-13T23:44:57.153Z,22.42
2018-02-13T23:47:25.459Z,23.87
2018-02-13T23:49:53.055Z,23.30
2018-02-13T23:52:20.601Z,22.20
2018-02-13T23:54:48.188Z,23.52
2018-02-13T23:57:15.732Z,23.33
2018-02-13T23:59:43.311Z,23.42
